createdAt,value
2019-04-27T00:02:06.248Z,89.03
2019-04-27T00:04:33.574Z,89.13
2019-04-27T00:07:00.707Z,89.21
2019-04-27T00:09:27.747Z,89.29
2019-04-27T00:11:55.135Z,89.49
2019-04-27T00:14:23.886Z,89.47
2019-04-27T00:16:51.194Z,89.11
2019-04-27T00:19:18.528Z,89.14
2019-04-27T00:21:45.568Z,89.34
2019-04-27T00:24:13.558Z,89.48
2019-04-27T00:26:41.004Z,89.21
2019-04-27T00:29:08.054Z,89.28
2019-04-27T00:31:35.096Z,89.44
2019-04-27T00:34:03.622Z,89.74
2019-04-27T00:36:31.048Z,89.77
2019-04-27T00:38:58.172Z,89.82
2019-04-27T00:41:25.275Z,89.73
2019-04-27T00:43:53.202Z,89.65
2019-04-27T00:46:20.636Z,89.72
2019-04-27T00:48:47.963Z,89.87
2019-04-27T00:51:14.998Z,89.95
2019-04-27T00:53:43.561Z,89.97
2019-04-27T00:56:11.024Z,89.82
2019-04-27T00:58:38.075Z,89.75
2019-04-27T01:04:08.074Z,89.31
2019-04-27T01:06:36.084Z,89.04
2019-04-27T01:09:03.643Z,88.67
2019-04-27T01:11:33.295Z,88.35
2019-04-27T01:14:00.448Z,87.78
2019-04-27T01:16:29.322Z,87.95
2019-04-27T01:18:56.630Z,87.23
2019-04-27T01:21:23.671Z,87.27
2019-04-27T01:23:50.731Z,86.95
2019-04-27T01:26:18.606Z,87.11
2019-04-27T01:28:45.957Z,86.78
2019-04-27T01:31:13.246Z,87.02
2019-04-27T01:33:40.658Z,86.76
2019-04-27T01:36:08.915Z,86.15
2019-04-27T01:38:36.448Z,86.63
2019-04-27T01:41:03.484Z,86.61
2019-04-27T01:43:30.535Z,86.80
2019-04-27T01:45:58.740Z,86.67
2019-04-27T01:48:28.246Z,86.26
2019-04-27T01:50:55.560Z,86.85
2019-04-27T01:53:22.616Z,85.99
2019-04-27T01:55:49.650Z,86.00
2019-04-27T01:58:19.945Z,86.40
2019-04-27T02:00:45.653Z,85.75
2019-04-27T02:03:14.566Z,85.76
2019-04-27T02:05:41.854Z,85.23
2019-04-27T02:08:09.572Z,85.65
2019-04-27T02:10:39.407Z,85.21
2019-04-27T02:13:08.949Z,85.28
2019-04-27T02:15:36.181Z,85.62
2019-04-27T02:18:03.218Z,85.78
2019-04-27T02:20:30.542Z,85.42
2019-04-27T02:22:58.779Z,85.75
2019-04-27T02:25:25.912Z,85.74
2019-04-27T02:27:52.950Z,85.78
2019-04-27T02:30:20.646Z,86.20
2019-04-27T02:32:49.837Z,86.03
2019-04-27T02:35:16.665Z,86.28
2019-04-27T02:37:43.707Z,86.61
2019-04-27T02:40:11.127Z,87.36
2019-04-27T02:42:39.302Z,87.10
2019-04-27T02:45:09.519Z,87.10
2019-04-27T02:47:35.907Z,87.18
2019-04-27T02:50:02.972Z,87.22
2019-04-27T02:52:30.305Z,87.44
2019-04-27T02:54:59.345Z,87.93
2019-04-27T02:57:29.736Z,87.91
2019-04-27T02:59:56.359Z,87.99
2019-04-27T03:02:23.390Z,88.26
2019-04-27T03:04:50.842Z,88.46
2019-04-27T03:07:19.920Z,88.38
2019-04-27T03:09:46.605Z,88.43
2019-04-27T03:12:13.647Z,88.53
2019-04-27T03:14:41.065Z,88.63
2019-04-27T03:17:09.916Z,88.65
2019-04-27T03:19:39.516Z,88.62
2019-04-27T03:22:09.400Z,88.74
2019-04-27T03:24:35.666Z,88.47
2019-04-27T03:27:02.957Z,88.09
2019-04-27T03:29:30.673Z,87.79
2019-04-27T03:32:01.563Z,87.80
2019-04-27T03:34:26.471Z,87.55
2019-04-27T03:36:53.517Z,88.15
2019-04-27T03:39:20.798Z,88.20
2019-04-27T03:41:52.331Z,88.22
2019-04-27T03:44:16.577Z,88.19
2019-04-27T03:46:43.636Z,88.54
2019-04-27T03:49:20.301Z,88.56
2019-04-27T03:51:40.805Z,88.39
2019-04-27T03:54:10.394Z,88.67
2019-04-27T03:56:39.369Z,88.48
2019-04-27T03:59:05.946Z,88.39
2019-04-27T04:01:32.992Z,88.54
2019-04-27T04:04:00.354Z,88.69
2019-04-27T04:06:29.544Z,88.92
2019-04-27T04:08:56.496Z,89.17
2019-04-27T04:11:23.845Z,89.05
2019-04-27T04:13:51.124Z,89.11
2019-04-27T04:16:20.271Z,88.99
2019-04-27T04:18:46.919Z,88.94
2019-04-27T04:21:14.292Z,89.07
2019-04-27T04:23:41.648Z,89.20
2019-04-27T04:26:09.848Z,89.45
2019-04-27T04:28:36.913Z,89.41
2019-04-27T04:31:03.968Z,89.21
2019-04-27T04:33:31.006Z,88.99
2019-04-27T04:35:59.727Z,88.38
2019-04-27T04:38:27.056Z,87.11
2019-04-27T04:40:54.090Z,84.62
2019-04-27T04:43:21.137Z,83.12
2019-04-27T04:45:50.048Z,83.75
2019-04-27T04:48:19.853Z,84.69
2019-04-27T04:50:46.367Z,84.89
2019-04-27T04:53:13.419Z,81.03
2019-04-27T04:55:40.710Z,75.23
2019-04-27T04:58:09.385Z,69.94
2019-04-27T05:00:36.620Z,63.89
2019-04-27T05:03:03.682Z,58.81
2019-04-27T05:05:30.719Z,56.79
2019-04-27T05:08:00.374Z,54.79
2019-04-27T05:10:26.779Z,51.46
2019-04-27T05:12:54.177Z,49.62
2019-04-27T05:15:21.530Z,47.67
2019-04-27T05:17:50.803Z,48.91
2019-04-27T05:20:24.643Z,45.62
2019-04-27T05:22:46.431Z,42.87
2019-04-27T05:25:13.818Z,41.58
2019-04-27T05:27:40.874Z,41.21
2019-04-27T05:30:09.306Z,41.14
2019-04-27T05:32:36.462Z,39.25
2019-04-27T05:35:03.507Z,39.28
2019-04-27T05:37:31.782Z,39.44
2019-04-27T05:39:59.282Z,37.08
2019-04-27T05:42:26.343Z,36.65
2019-04-27T05:44:53.682Z,35.41
2019-04-27T05:47:21.042Z,35.39
2019-04-27T05:49:48.600Z,34.50
2019-04-27T05:52:15.626Z,34.13
2019-04-27T05:54:42.669Z,32.67
2019-04-27T05:57:09.726Z,34.72
2019-04-27T05:59:37.103Z,33.67
2019-04-27T06:02:04.157Z,32.77
2019-04-27T06:04:32.266Z,33.19
2019-04-27T06:07:01.043Z,33.48
2019-04-27T06:09:28.953Z,32.45
2019-04-27T06:11:56.450Z,32.75
2019-04-27T06:14:23.506Z,32.41
2019-04-27T06:16:51.617Z,32.04
2019-04-27T06:19:19.443Z,31.52
2019-04-27T06:21:46.527Z,32.02
2019-04-27T06:24:13.931Z,30.86
2019-04-27T06:26:41.218Z,30.51
2019-04-27T06:29:09.527Z,29.76
2019-04-27T06:31:36.697Z,29.12
2019-04-27T06:34:04.063Z,30.32
2019-04-27T06:36:31.121Z,28.45
2019-04-27T06:38:58.927Z,27.89
2019-04-27T06:41:26.080Z,29.28
2019-04-27T06:43:53.134Z,30.70
2019-04-27T06:46:20.535Z,30.64
2019-04-27T06:48:49.476Z,29.10
2019-04-27T06:51:16.707Z,30.56
2019-04-27T06:53:43.772Z,29.37
2019-04-27T06:56:10.805Z,30.32
2019-04-27T06:58:40.489Z,30.12
2019-04-27T07:01:06.598Z,29.37
2019-04-27T07:03:33.655Z,30.91
2019-04-27T07:06:00.700Z,29.51
2019-04-27T07:08:30.523Z,29.11
2019-04-27T07:10:56.511Z,27.96
2019-04-27T07:13:23.551Z,28.15
2019-04-27T07:15:50.941Z,28.63
2019-04-27T07:18:18.643Z,29.69
2019-04-27T07:20:45.719Z,31.68
2019-04-27T07:23:12.776Z,34.08
2019-04-27T07:25:39.817Z,35.85
2019-04-27T07:28:06.940Z,36.30
2019-04-27T07:30:33.976Z,36.40
2019-04-27T07:33:01.307Z,36.01
2019-04-27T07:35:29.606Z,35.27
2019-04-27T07:37:56.761Z,36.32
2019-04-27T07:40:24.107Z,39.01
2019-04-27T07:42:51.467Z,40.80
2019-04-27T07:45:19.639Z,40.76
2019-04-27T07:47:46.610Z,40.59
2019-04-27T07:50:13.674Z,38.93
2019-04-27T07:52:40.707Z,36.47
2019-04-27T07:55:08.700Z,36.04
2019-04-27T07:57:35.829Z,35.73
2019-04-27T08:00:03.233Z,36.34
2019-04-27T08:02:31.713Z,34.81
2019-04-27T08:04:59.612Z,35.75
2019-04-27T08:07:26.697Z,35.53
2019-04-27T08:09:53.748Z,34.53
2019-04-27T08:12:21.092Z,34.79
2019-04-27T08:14:49.062Z,35.03
2019-04-27T08:17:16.306Z,34.03
2019-04-27T08:19:43.362Z,34.02
2019-04-27T08:22:10.406Z,34.75
2019-04-27T08:24:39.406Z,35.24
2019-04-27T08:27:06.441Z,34.64
2019-04-27T08:29:33.568Z,33.17
2019-04-27T08:32:00.613Z,31.68
2019-04-27T08:34:29.490Z,30.91
2019-04-27T08:36:56.581Z,30.37
2019-04-27T08:39:23.639Z,29.90
2019-04-27T08:41:50.679Z,30.20
2019-04-27T08:44:19.405Z,32.26
2019-04-27T08:46:46.567Z,32.62
2019-04-27T08:49:13.614Z,32.53
2019-04-27T08:51:41.618Z,32.69
2019-04-27T08:54:09.218Z,32.62
2019-04-27T08:56:36.274Z,36.79
2019-04-27T08:59:03.317Z,38.12
2019-04-27T09:01:30.364Z,39.60
2019-04-27T09:03:59.087Z,39.11
2019-04-27T09:06:26.302Z,38.94
2019-04-27T09:08:53.682Z,39.26
2019-04-27T09:11:20.784Z,37.28
2019-04-27T09:13:48.774Z,34.79
2019-04-27T09:16:15.824Z,33.64
2019-04-27T09:18:43.235Z,33.06
2019-04-27T09:21:10.738Z,32.95
2019-04-27T09:23:38.901Z,32.52
2019-04-27T09:26:06.397Z,34.52
2019-04-27T09:28:33.508Z,35.08
2019-04-27T09:31:00.560Z,35.78
2019-04-27T09:33:27.604Z,36.75
2019-04-27T09:35:56.587Z,38.35
2019-04-27T09:38:23.824Z,40.13
2019-04-27T09:40:51.145Z,42.80
2019-04-27T09:43:18.187Z,43.16
2019-04-27T09:45:47.171Z,44.60
2019-04-27T09:48:15.928Z,44.10
2019-04-27T09:50:43.120Z,45.18
2019-04-27T09:53:10.233Z,45.06
2019-04-27T09:55:37.286Z,45.45
2019-04-27T09:58:05.752Z,47.21
2019-04-27T10:00:32.958Z,49.00
2019-04-27T10:03:00.414Z,56.33
2019-04-27T10:05:27.483Z,63.00
2019-04-27T10:07:54.523Z,65.96
2019-04-27T10:10:21.862Z,66.77
2019-04-27T10:12:48.910Z,68.69
2019-04-27T10:15:16.354Z,70.83
2019-04-27T10:17:43.383Z,71.36
2019-04-27T10:20:10.423Z,70.49
2019-04-27T10:22:41.227Z,71.40
2019-04-27T10:25:06.554Z,71.05
2019-04-27T10:27:33.610Z,69.64
2019-04-27T10:30:00.653Z,68.16
2019-04-27T10:32:28.160Z,66.80
2019-04-27T10:34:57.386Z,67.01
2019-04-27T10:37:24.443Z,67.76
2019-04-27T10:39:51.480Z,67.87
2019-04-27T10:42:18.534Z,66.03
2019-04-27T10:44:46.302Z,66.26
2019-04-27T10:47:13.386Z,65.62
2019-04-27T10:49:40.431Z,67.19
2019-04-27T10:52:07.725Z,67.24
2019-04-27T10:54:35.075Z,67.52
2019-04-27T10:57:02.133Z,67.72
2019-04-27T10:59:29.181Z,66.75
2019-04-27T11:01:56.238Z,66.50
2019-04-27T11:04:23.280Z,65.80
2019-04-27T11:06:50.411Z,65.98
2019-04-27T11:09:18.534Z,66.43
2019-04-27T11:11:46.351Z,66.53
2019-04-27T11:14:13.532Z,63.67
2019-04-27T11:16:40.586Z,60.64
2019-04-27T11:19:07.622Z,59.38
2019-04-27T11:21:34.678Z,59.10
2019-04-27T11:24:01.721Z,56.26
2019-04-27T11:26:28.769Z,57.66
2019-04-27T11:28:56.103Z,58.38
2019-04-27T11:31:23.137Z,57.39
2019-04-27T11:33:50.199Z,57.92
2019-04-27T11:36:17.258Z,61.12
2019-04-27T11:38:46.505Z,62.96
2019-04-27T11:41:13.901Z,63.66
2019-04-27T11:43:41.253Z,66.27
2019-04-27T11:46:08.301Z,66.80
2019-04-27T11:48:36.174Z,67.11
2019-04-27T11:51:03.177Z,68.92
2019-04-27T11:53:30.229Z,71.27
2019-04-27T11:55:57.266Z,71.41
2019-04-27T11:58:24.324Z,71.31
2019-04-27T12:00:51.722Z,71.63
2019-04-27T12:03:18.779Z,70.39
2019-04-27T12:05:46.897Z,69.75
2019-04-27T12:08:13.952Z,68.97
2019-04-27T12:10:40.991Z,69.94
2019-04-27T12:13:08.049Z,67.33
2019-04-27T12:15:36.237Z,67.08
2019-04-27T12:18:03.394Z,65.51
2019-04-27T12:20:30.485Z,63.04
2019-04-27T12:22:57.544Z,63.08
2019-04-27T12:25:24.584Z,62.66
2019-04-27T12:27:52.608Z,60.13
2019-04-27T12:30:19.654Z,60.84
2019-04-27T12:32:46.711Z,62.68
2019-04-27T12:35:13.993Z,61.70
2019-04-27T12:37:41.065Z,58.57
2019-04-27T12:40:08.098Z,55.54
2019-04-27T12:42:36.426Z,55.94
2019-04-27T12:45:03.577Z,55.50
2019-04-27T12:47:30.955Z,55.31
2019-04-27T12:49:58.006Z,54.92
2019-04-27T12:52:25.957Z,57.16
2019-04-27T12:54:52.981Z,59.84
2019-04-27T12:57:20.959Z,62.93
2019-04-27T12:59:48.445Z,63.31
2019-04-27T13:02:15.485Z,64.14
2019-04-27T13:04:42.543Z,62.65
2019-04-27T13:07:09.586Z,62.59
2019-04-27T13:09:36.643Z,59.87
2019-04-27T13:12:03.997Z,58.84
2019-04-27T13:14:31.055Z,57.13
2019-04-27T13:16:58.265Z,57.85
2019-04-27T13:19:25.873Z,57.18
2019-04-27T13:21:53.039Z,58.67
2019-04-27T13:24:20.094Z,57.78
2019-04-27T13:26:47.405Z,55.00
2019-04-27T13:29:14.458Z,56.48
2019-04-27T13:31:41.760Z,56.03
2019-04-27T13:34:08.893Z,56.57
2019-04-27T13:36:36.797Z,53.07
2019-04-27T13:39:03.962Z,53.61
2019-04-27T13:41:32.969Z,54.55
2019-04-27T13:44:00.451Z,53.48
2019-04-27T13:46:27.781Z,54.12
2019-04-27T13:48:56.276Z,54.84
2019-04-27T13:51:25.540Z,55.42
2019-04-27T13:53:52.471Z,55.89
2019-04-27T13:56:19.516Z,55.25
2019-04-27T13:58:46.915Z,55.40
2019-04-27T14:01:13.951Z,55.92
2019-04-27T14:03:41.012Z,56.15
2019-04-27T14:06:08.158Z,54.50
2019-04-27T14:08:35.161Z,53.16
2019-04-27T14:11:02.218Z,53.27
2019-04-27T14:13:29.260Z,52.85
2019-04-27T14:15:56.658Z,50.95
2019-04-27T14:18:23.965Z,50.54
2019-04-27T14:20:52.091Z,50.83
2019-04-27T14:23:19.133Z,52.16
2019-04-27T14:25:46.187Z,51.31
2019-04-27T14:28:13.537Z,52.09
2019-04-27T14:30:40.599Z,52.21
2019-04-27T14:33:08.469Z,53.41
2019-04-27T14:35:35.570Z,54.59
2019-04-27T14:38:02.611Z,54.96
2019-04-27T14:40:29.673Z,55.57
2019-04-27T14:42:56.711Z,56.10
2019-04-27T14:45:23.822Z,56.84
2019-04-27T14:47:50.887Z,56.73
2019-04-27T14:50:18.794Z,56.62
2019-04-27T14:52:45.966Z,57.10
2019-04-27T14:55:13.322Z,57.34
2019-04-27T14:57:40.366Z,57.83
2019-04-27T15:00:07.423Z,57.17
2019-04-27T15:02:35.497Z,58.40
2019-04-27T15:05:02.565Z,59.35
2019-04-27T15:07:29.889Z,63.72
2019-04-27T15:09:57.607Z,68.35
2019-04-27T15:12:30.610Z,71.53
2019-04-27T15:14:57.304Z,75.43
2019-04-27T15:17:25.570Z,80.27
2019-04-27T15:19:52.756Z,83.05
2019-04-27T15:22:22.668Z,83.31
2019-04-27T15:25:07.711Z,83.76
2019-04-27T15:27:17.379Z,84.18
2019-04-27T15:29:44.412Z,84.20
2019-04-27T15:32:12.407Z,84.99
2019-04-27T15:34:40.079Z,84.14
2019-04-27T15:37:08.494Z,84.76
2019-04-27T15:39:35.848Z,84.76
2019-04-27T15:42:07.982Z,84.19
2019-04-27T15:44:31.991Z,84.03
2019-04-27T15:46:59.345Z,83.34
2019-04-27T15:49:26.386Z,83.18
2019-04-27T15:51:54.727Z,83.65
2019-04-27T15:54:26.399Z,83.68
2019-04-27T15:56:51.484Z,82.83
2019-04-27T15:59:18.785Z,82.75
2019-04-27T16:01:46.145Z,82.85
2019-04-27T16:04:13.183Z,82.98
2019-04-27T16:06:42.880Z,82.57
2019-04-27T16:09:10.024Z,82.34
2019-04-27T16:11:37.166Z,82.87
2019-04-27T16:14:06.707Z,82.67
2019-04-27T16:16:33.591Z,82.09
2019-04-27T16:19:03.534Z,82.24
2019-04-27T16:21:31.508Z,81.66
2019-04-27T16:23:58.234Z,79.49
2019-04-27T16:26:25.545Z,79.35
2019-04-27T16:28:53.606Z,79.47
2019-04-27T16:31:24.942Z,80.77
2019-04-27T16:33:54.132Z,81.77
2019-04-27T16:36:19.741Z,81.89
2019-04-27T16:38:48.242Z,82.34
2019-04-27T16:41:15.288Z,82.51
2019-04-27T16:43:42.340Z,81.75
2019-04-27T16:46:09.371Z,82.25
2019-04-27T16:48:36.420Z,81.76
2019-04-27T16:51:03.468Z,81.73
2019-04-27T16:53:39.535Z,81.47
2019-04-27T16:56:02.009Z,81.61
2019-04-27T16:58:31.853Z,80.56
2019-04-27T17:01:00.134Z,80.79
2019-04-27T17:03:26.982Z,81.70
2019-04-27T17:05:54.016Z,81.01
2019-04-27T17:08:26.094Z,80.73
2019-04-27T17:10:50.204Z,79.75
2019-04-27T17:13:18.616Z,80.74
2019-04-27T17:15:52.838Z,80.68
2019-04-27T17:18:14.691Z,80.75
2019-04-27T17:20:42.005Z,80.00
2019-04-27T17:23:09.145Z,81.12
2019-04-27T17:25:39.688Z,82.01
2019-04-27T17:28:05.235Z,81.41
2019-04-27T17:30:37.865Z,82.15
2019-04-27T17:33:05.900Z,82.39
2019-04-27T17:35:30.387Z,80.60
2019-04-27T17:37:59.438Z,81.20
2019-04-27T17:40:29.933Z,81.09
2019-04-27T17:43:03.329Z,81.48
2019-04-27T17:45:24.757Z,82.08
2019-04-27T17:47:52.052Z,82.44
2019-04-27T17:50:25.064Z,83.25
2019-04-27T17:52:54.617Z,84.07
2019-04-27T17:55:23.002Z,84.59
2019-04-27T17:57:45.353Z,84.80
2019-04-27T18:00:12.377Z,84.75
2019-04-27T18:02:42.386Z,84.83
2019-04-27T18:05:09.504Z,84.97
2019-04-27T18:07:42.640Z,84.53
2019-04-27T18:10:08.734Z,84.29
2019-04-27T18:12:36.210Z,84.53
2019-04-27T18:15:03.271Z,83.31
2019-04-27T18:17:31.327Z,83.37
2019-04-27T18:19:59.625Z,83.06
2019-04-27T18:22:28.189Z,83.86
2019-04-27T18:24:55.705Z,82.98
2019-04-27T18:27:24.754Z,82.83
2019-04-27T18:29:51.808Z,83.50
2019-04-27T18:32:19.142Z,83.47
2019-04-27T18:34:49.376Z,83.75
2019-04-27T18:37:20.999Z,83.74
2019-04-27T18:39:45.470Z,83.61
2019-04-27T18:42:12.414Z,83.60
2019-04-27T18:44:39.465Z,83.63
2019-04-27T18:47:08.448Z,84.00
2019-04-27T18:49:35.954Z,83.68
2019-04-27T18:52:04.407Z,83.92
2019-04-27T18:54:33.082Z,83.26
2019-04-27T18:57:02.660Z,83.34
2019-04-27T18:59:29.779Z,83.53
2019-04-27T19:01:58.026Z,83.91
2019-04-27T19:04:25.153Z,84.16
2019-04-27T19:06:52.190Z,84.38
2019-04-27T19:09:19.248Z,83.82
2019-04-27T19:11:54.187Z,84.75
2019-04-27T19:14:15.105Z,84.21
2019-04-27T19:16:42.143Z,83.56
2019-04-27T19:19:09.213Z,84.24
2019-04-27T19:21:36.247Z,84.28
2019-04-27T19:24:03.282Z,83.18
2019-04-27T19:26:30.625Z,83.63
2019-04-27T19:28:58.441Z,83.14
2019-04-27T19:31:25.579Z,82.71
2019-04-27T19:33:52.617Z,82.27
2019-04-27T19:36:19.669Z,82.17
2019-04-27T19:44:04.646Z,82.42
2019-04-27T19:46:33.863Z,82.98
2019-04-27T19:49:04.117Z,83.90
2019-04-27T19:51:36.782Z,84.67
2019-04-27T19:54:04.112Z,85.46
2019-04-27T19:56:32.309Z,86.33
2019-04-27T19:59:00.592Z,86.35
2019-04-27T20:01:28.131Z,87.35
2019-04-27T20:03:59.787Z,86.90
2019-04-27T20:06:32.088Z,87.39
2019-04-27T20:09:08.578Z,88.13
2019-04-27T20:11:37.064Z,86.97
2019-04-27T20:14:04.420Z,88.23
2019-04-27T20:16:32.679Z,88.03
2019-04-27T20:19:01.533Z,88.05
2019-04-27T20:21:30.813Z,88.21
2019-04-27T20:23:58.066Z,88.35
2019-04-27T20:26:27.117Z,88.19
2019-04-27T20:28:58.440Z,88.37
2019-04-27T20:31:25.685Z,88.41
2019-04-27T20:33:59.867Z,88.41
2019-04-27T20:36:27.053Z,88.28
2019-04-27T20:39:01.173Z,88.46
2019-04-27T20:44:03.321Z,88.47
2019-04-27T20:46:31.298Z,88.61
2019-04-27T20:49:04.393Z,88.51
2019-04-27T20:51:33.982Z,88.56
2019-04-27T20:54:05.346Z,88.51
2019-04-27T20:56:33.595Z,88.60
2019-04-27T20:59:01.701Z,88.44
2019-04-27T21:01:33.984Z,88.23
2019-04-27T21:04:01.309Z,88.05
2019-04-27T21:06:28.749Z,88.27
2019-04-27T21:08:55.928Z,88.30
2019-04-27T21:11:24.120Z,88.21
2019-04-27T21:13:58.617Z,87.75
2019-04-27T21:18:58.424Z,88.09
2019-04-27T21:21:30.128Z,88.04
2019-04-27T21:23:59.321Z,87.92
2019-04-27T21:26:27.506Z,87.81
2019-04-27T21:28:58.597Z,88.04
2019-04-27T21:34:20.393Z,88.18
2019-04-27T21:42:00.906Z,87.92
2019-04-27T21:44:28.399Z,88.15
2019-04-27T21:52:22.057Z,88.07
2019-04-27T21:55:01.445Z,88.08
2019-04-27T21:57:28.711Z,88.13
2019-04-27T21:59:56.901Z,87.70
2019-04-27T22:02:27.399Z,88.00
2019-04-27T22:04:59.808Z,88.09
2019-04-27T22:07:31.724Z,88.29
2019-04-27T22:10:01.999Z,88.07
2019-04-27T22:12:31.240Z,88.19
2019-04-27T22:15:01.041Z,88.12
2019-04-27T22:22:49.407Z,88.71
2019-04-27T22:25:18.653Z,88.78
2019-04-27T22:30:21.811Z,88.82
2019-04-27T22:32:49.062Z,89.00
2019-04-27T22:35:16.307Z,89.06
2019-04-27T22:37:43.829Z,88.97
2019-04-27T22:40:12.134Z,89.24
2019-04-27T22:42:41.545Z,89.31
2019-04-27T22:45:08.981Z,89.40
2019-04-27T22:47:38.213Z,89.33
2019-04-27T22:50:10.700Z,89.50
2019-04-27T22:52:38.812Z,89.70
2019-04-27T22:55:05.998Z,89.79
2019-04-27T22:57:34.316Z,89.80
2019-04-27T23:00:03.731Z,89.97
2019-04-27T23:02:32.445Z,90.19
2019-04-27T23:04:59.495Z,90.24
2019-04-27T23:07:26.530Z,90.46
2019-04-27T23:09:53.577Z,90.58
2019-04-27T23:12:21.342Z,90.65
2019-04-27T23:14:49.601Z,90.61
2019-04-27T23:17:16.635Z,90.58
2019-04-27T23:19:43.683Z,90.38
2019-04-27T23:22:11.147Z,90.58
2019-04-27T23:24:38.437Z,90.57
2019-04-27T23:27:05.475Z,90.47
2019-04-27T23:29:33.182Z,90.20
2019-04-27T23:32:01.661Z,90.20
2019-04-27T23:34:28.742Z,90.30
2019-04-27T23:36:56.036Z,90.30
2019-04-27T23:39:23.090Z,90.16
2019-04-27T23:41:50.129Z,90.14
2019-04-27T23:44:17.177Z,89.99
2019-04-27T23:46:44.242Z,89.98
2019-04-27T23:49:12.173Z,89.65
2019-04-27T23:51:39.177Z,89.33
2019-04-27T23:54:06.218Z,89.45
2019-04-27T23:56:33.510Z,89.85
2019-04-27T23:59:00.800Z,89.90
